createdAt,value
2019-05-10T00:02:55.152Z,89.50
2019-05-10T00:08:18.238Z,89.44
2019-05-10T00:13:25.705Z,89.24
2019-05-10T00:18:30.992Z,89.19
2019-05-10T00:23:36.224Z,89.09
2019-05-10T00:28:41.512Z,88.54
2019-05-10T00:33:46.830Z,88.46
2019-05-10T00:38:52.072Z,87.71
2019-05-10T00:43:59.870Z,87.42
2019-05-10T00:49:05.523Z,86.82
2019-05-10T00:54:10.775Z,86.85
2019-05-10T00:59:16.399Z,86.77
2019-05-10T01:04:21.733Z,87.74
2019-05-10T01:09:26.951Z,87.70
2019-05-10T01:14:32.224Z,87.30
2019-05-10T01:19:37.439Z,87.21
2019-05-10T01:24:42.891Z,86.85
2019-05-10T01:29:48.158Z,86.92
2019-05-10T01:34:53.489Z,87.05
2019-05-10T01:39:58.765Z,86.77
2019-05-10T01:45:03.984Z,87.23
2019-05-10T01:50:09.280Z,86.76
2019-05-10T01:55:14.856Z,86.73
2019-05-10T02:00:20.471Z,87.59
2019-05-10T02:05:25.820Z,87.14
2019-05-10T02:10:31.227Z,87.42
2019-05-10T02:15:36.584Z,87.32
2019-05-10T02:20:42.146Z,87.24
2019-05-10T02:25:47.476Z,87.89
2019-05-10T02:30:52.721Z,87.31
2019-05-10T02:35:57.973Z,87.46
2019-05-10T02:41:03.212Z,87.25
2019-05-10T02:46:08.752Z,87.47
2019-05-10T02:51:13.967Z,87.60
2019-05-10T02:56:30.444Z,88.49
2019-05-10T03:01:30.670Z,88.17
2019-05-10T03:06:36.637Z,89.01
2019-05-10T03:11:49.624Z,88.23
2019-05-10T03:16:55.257Z,88.49
2019-05-10T03:22:06.475Z,88.16
2019-05-10T03:27:12.631Z,87.98
2019-05-10T03:32:17.938Z,87.47
2019-05-10T03:37:23.250Z,88.05
2019-05-10T03:42:28.891Z,88.48
2019-05-10T03:47:34.654Z,88.75
2019-05-10T03:52:39.873Z,89.18
2019-05-10T03:57:45.161Z,89.30
2019-05-10T04:02:50.767Z,88.62
2019-05-10T04:07:56.003Z,88.55
2019-05-10T04:13:01.240Z,88.41
2019-05-10T04:18:06.531Z,87.59
2019-05-10T04:23:11.766Z,87.82
2019-05-10T04:28:17.309Z,87.48
2019-05-10T04:33:22.614Z,87.98
2019-05-10T04:38:27.870Z,87.85
2019-05-10T04:43:33.177Z,86.60
2019-05-10T04:48:38.775Z,85.95
2019-05-10T04:53:44.053Z,86.05
2019-05-10T04:58:49.373Z,85.58
2019-05-10T05:03:55.564Z,86.34
2019-05-10T05:09:00.790Z,85.40
2019-05-10T05:14:09.461Z,84.13
2019-05-10T05:19:13.548Z,83.98
2019-05-10T05:24:22.868Z,83.80
2019-05-10T05:29:26.097Z,83.97
2019-05-10T05:34:32.264Z,83.18
2019-05-10T05:39:37.766Z,82.53
2019-05-10T05:44:43.004Z,82.50
2019-05-10T05:49:48.264Z,83.19
2019-05-10T05:54:57.445Z,81.97
2019-05-10T06:00:04.119Z,81.58
2019-05-10T06:05:07.584Z,81.62
2019-05-10T06:10:17.339Z,80.96
2019-05-10T06:15:23.142Z,79.23
2019-05-10T06:20:26.878Z,77.10
2019-05-10T06:25:39.257Z,76.87
2019-05-10T06:30:39.065Z,76.39
2019-05-10T06:35:44.426Z,72.96
2019-05-10T06:40:49.670Z,72.96
2019-05-10T06:45:55.843Z,72.90
2019-05-10T06:51:03.078Z,72.48
2019-05-10T06:56:08.389Z,72.33
2019-05-10T07:01:13.941Z,71.89
2019-05-10T07:06:19.302Z,71.62
2019-05-10T07:11:24.535Z,70.48
2019-05-10T07:16:29.997Z,70.32
2019-05-10T07:21:38.982Z,69.91
2019-05-10T07:26:43.482Z,69.37
2019-05-10T07:31:48.827Z,69.02
2019-05-10T07:36:54.417Z,68.63
2019-05-10T07:42:00.273Z,68.15
2019-05-10T07:47:06.834Z,66.51
2019-05-10T07:52:12.081Z,66.84
2019-05-10T07:57:18.514Z,64.41
2019-05-10T08:02:24.617Z,65.34
2019-05-10T08:07:29.847Z,64.41
2019-05-10T08:12:41.528Z,62.36
2019-05-10T08:17:45.561Z,60.93
2019-05-10T08:22:49.859Z,61.80
2019-05-10T08:27:55.536Z,61.90
2019-05-10T08:33:09.119Z,63.38
2019-05-10T08:38:07.925Z,62.97
2019-05-10T08:43:16.672Z,62.80
2019-05-10T08:48:20.071Z,62.29
2019-05-10T08:53:25.432Z,61.64
2019-05-10T08:58:32.456Z,62.92
2019-05-10T09:03:37.677Z,61.93
2019-05-10T09:08:43.360Z,61.64
2019-05-10T09:13:49.919Z,61.30
2019-05-10T09:18:55.413Z,61.50
2019-05-10T09:24:04.885Z,60.97
2019-05-10T09:29:08.369Z,58.55
2019-05-10T09:34:13.617Z,58.41
2019-05-10T09:39:24.310Z,56.52
2019-05-10T09:44:25.906Z,57.36
2019-05-10T09:49:33.251Z,56.69
2019-05-10T09:54:38.261Z,56.43
2019-05-10T09:59:43.424Z,57.04
2019-05-10T10:04:48.733Z,57.09
2019-05-10T10:09:54.022Z,57.29
2019-05-10T10:15:00.658Z,57.39
2019-05-10T10:20:08.424Z,55.96
2019-05-10T10:25:13.533Z,55.91
2019-05-10T10:30:21.538Z,54.20
2019-05-10T10:35:27.606Z,53.24
2019-05-10T10:40:35.385Z,54.57
2019-05-10T10:45:40.017Z,55.90
2019-05-10T10:50:51.231Z,55.63
2019-05-10T10:55:54.267Z,51.01
2019-05-10T11:00:59.268Z,50.64
2019-05-10T11:06:05.054Z,48.94
2019-05-10T11:11:10.643Z,48.41
2019-05-10T11:16:16.020Z,48.45
2019-05-10T11:21:23.328Z,47.14
2019-05-10T11:26:32.803Z,45.52
2019-05-10T11:31:35.260Z,43.29
2019-05-10T11:36:45.782Z,42.26
2019-05-10T11:41:53.105Z,42.83
2019-05-10T11:46:54.423Z,42.22
2019-05-10T11:52:01.680Z,45.02
2019-05-10T11:57:12.829Z,45.08
2019-05-10T12:02:33.792Z,44.68
2019-05-10T12:07:26.850Z,44.71
2019-05-10T12:12:45.279Z,43.67
2019-05-10T12:17:35.758Z,39.90
2019-05-10T12:22:47.206Z,40.28
2019-05-10T12:27:51.460Z,39.51
2019-05-10T12:32:57.143Z,37.45
2019-05-10T12:38:03.225Z,36.44
2019-05-10T12:43:10.745Z,34.51
2019-05-10T12:48:16.529Z,32.59
2019-05-10T12:53:21.761Z,31.33
2019-05-10T12:58:27.040Z,30.30
2019-05-10T13:04:54.380Z,31.67
2019-05-10T13:10:03.987Z,35.63
2019-05-10T13:15:17.400Z,38.57
2019-05-10T13:20:24.248Z,40.52
2019-05-10T13:25:29.798Z,40.54
2019-05-10T13:30:35.045Z,41.88
2019-05-10T13:35:40.276Z,38.55
2019-05-10T13:40:47.832Z,38.93
2019-05-10T13:45:53.526Z,35.34
2019-05-10T13:51:00.484Z,37.12
2019-05-10T13:56:05.792Z,33.26
2019-05-10T14:01:13.216Z,32.76
2019-05-10T14:06:18.390Z,35.84
2019-05-10T14:11:23.954Z,35.77
2019-05-10T14:16:29.450Z,34.12
2019-05-10T14:21:34.785Z,32.06
2019-05-10T14:26:40.053Z,30.66
2019-05-10T14:31:45.295Z,34.60
2019-05-10T14:36:50.721Z,35.74
2019-05-10T14:41:57.326Z,38.49
2019-05-10T14:47:05.823Z,38.60
2019-05-10T14:52:11.818Z,40.05
2019-05-10T14:57:17.183Z,38.42
2019-05-10T15:02:24.926Z,41.68
2019-05-10T15:07:29.908Z,43.46
2019-05-10T15:12:35.357Z,43.96
2019-05-10T15:17:40.797Z,46.71
2019-05-10T15:22:46.201Z,46.40
2019-05-10T15:27:54.711Z,47.69
2019-05-10T15:32:59.053Z,48.39
2019-05-10T15:38:04.730Z,48.80
2019-05-10T15:43:16.696Z,49.51
2019-05-10T15:48:17.781Z,49.50
2019-05-10T15:53:25.459Z,48.74
2019-05-10T15:59:23.775Z,47.45
2019-05-10T16:03:37.061Z,48.02
2019-05-10T16:08:42.984Z,48.25
2019-05-10T16:13:48.193Z,48.50
2019-05-10T16:18:53.413Z,47.53
2019-05-10T16:23:58.972Z,47.31
2019-05-10T16:29:04.206Z,47.63
2019-05-10T16:34:09.527Z,47.81
2019-05-10T16:39:14.759Z,48.47
2019-05-10T16:44:21.031Z,49.37
2019-05-10T16:49:26.579Z,49.76
2019-05-10T16:54:31.938Z,52.79
2019-05-10T16:59:37.605Z,53.64
2019-05-10T17:04:42.946Z,53.19
2019-05-10T17:09:52.816Z,53.32
2019-05-10T17:14:56.510Z,53.22
2019-05-10T17:20:07.339Z,54.38
2019-05-10T17:30:27.769Z,55.03
2019-05-10T17:35:36.529Z,55.58
2019-05-10T17:40:42.299Z,55.07
2019-05-10T17:45:47.186Z,55.74
2019-05-10T17:50:52.479Z,55.99
2019-05-10T17:56:02.557Z,56.15
2019-05-10T18:01:04.812Z,58.51
2019-05-10T18:06:22.974Z,56.82
2019-05-10T18:11:17.737Z,57.71
2019-05-10T18:16:23.297Z,57.16
2019-05-10T18:21:28.510Z,58.17
2019-05-10T18:26:39.064Z,58.73
2019-05-10T18:31:41.364Z,60.47
2019-05-10T18:36:51.657Z,60.68
2019-05-10T18:41:53.891Z,60.71
2019-05-10T18:46:59.292Z,63.83
2019-05-10T18:52:06.626Z,63.55
2019-05-10T18:57:18.769Z,65.85
2019-05-10T19:02:19.984Z,66.24
2019-05-10T19:07:26.054Z,66.52
2019-05-10T19:12:31.597Z,67.62
2019-05-10T19:17:40.324Z,68.04
2019-05-10T19:22:44.289Z,69.44
2019-05-10T19:27:50.777Z,70.02
2019-05-10T19:32:58.086Z,70.60
2019-05-10T19:38:03.491Z,71.42
2019-05-10T19:43:08.834Z,71.00
2019-05-10T19:48:14.195Z,71.13
2019-05-10T19:53:19.439Z,71.55
2019-05-10T19:58:26.609Z,73.20
2019-05-10T20:03:33.183Z,73.51
2019-05-10T20:08:38.424Z,73.84
2019-05-10T20:13:44.536Z,74.56
2019-05-10T20:18:49.870Z,73.33
2019-05-10T20:23:55.422Z,72.13
2019-05-10T20:29:00.756Z,73.24
2019-05-10T20:34:05.993Z,73.24
2019-05-10T20:39:11.451Z,73.46
2019-05-10T20:44:18.370Z,72.99
2019-05-10T20:49:23.647Z,73.18
2019-05-10T20:54:31.073Z,74.48
2019-05-10T20:59:36.927Z,75.45
2019-05-10T21:04:42.697Z,75.65
2019-05-10T21:09:48.025Z,75.06
2019-05-10T21:14:54.659Z,74.70
2019-05-10T21:20:00.851Z,75.62
2019-05-10T21:25:06.904Z,75.66
2019-05-10T21:30:12.611Z,76.48
2019-05-10T21:35:17.872Z,76.21
2019-05-10T21:40:23.386Z,76.68
2019-05-10T21:45:28.722Z,77.32
2019-05-10T21:50:37.305Z,76.72
2019-05-10T21:55:43.728Z,75.76
2019-05-10T22:00:54.457Z,76.23
2019-05-10T22:06:01.725Z,77.25
2019-05-10T22:11:07.041Z,77.07
2019-05-10T22:16:12.908Z,75.57
2019-05-10T22:21:18.264Z,75.95
2019-05-10T22:26:23.638Z,75.48
2019-05-10T22:31:29.153Z,75.92
2019-05-10T22:36:35.039Z,77.67
2019-05-10T22:41:40.387Z,76.58
2019-05-10T22:46:45.970Z,77.23
2019-05-10T22:51:51.711Z,77.57
2019-05-10T22:56:57.550Z,78.16
2019-05-10T23:02:03.469Z,78.37
2019-05-10T23:07:10.466Z,79.85
2019-05-10T23:12:15.825Z,81.94
2019-05-10T23:17:21.089Z,81.82
2019-05-10T23:22:26.395Z,82.59
2019-05-10T23:27:32.133Z,83.18
2019-05-10T23:32:37.488Z,82.41
2019-05-10T23:37:45.087Z,82.22
2019-05-10T23:42:50.381Z,81.29
2019-05-10T23:47:56.899Z,81.01
2019-05-10T23:53:02.257Z,80.60
2019-05-10T23:58:07.527Z,80.24
